x

Matinicus Rock, Me (mism1) Weather Station

12:00 - Fri 6th May 2016 All times are EDT. -4 hours from GMT.

  • Wind
    24mph, 26mph gusts
  • Ar Temp 43°f
  • Sea Pressure 1003.6mb
  • Matinicus Rock, Me
  • Matinicus Rock, Me

More Historic Weather Station data

Upgrade to MSW Pro to gain access to the past 30 days of data for over 8000 Wavebouys and Weather Stations around the globe.

Join Pro

Comparision Forecast

View Surf forecast
   
Sex 05/06 12:00 24 26 mph 1003.6mb 43f
Qui 05/05 11:00 24 28 mph 1004.2mb 43f
10:00 25 29 mph 1004.9mb 43f
9:00 22 24 mph 1005.7mb 43f
8:00 21 24 mph 1006.3mb 43f
7:00 21 23 mph 1006.9mb 43f
6:00 18 23 mph 1007.3mb 43f
5:00 21 23 mph 1007.4mb 43f
4:00 22 25 mph 1007.9mb 43f
3:00 21 23 mph 1008.2mb 42f
2:00 22 24 mph 1008.3mb 42f
1:00 21 23 mph 1009mb 42f
12:00 24 26 mph 1008.9mb 42f
11:00 21 23 mph 1009mb 42f
10:00 25 28 mph 1009.1mb 41f
9:00 23 26 mph 1008.8mb 41f
8:00 23 25 mph 1008.6mb 41f
7:00 22 24 mph 1008.3mb 42f
6:00 25 30 mph 1008.1mb 42f
5:00 28 31 mph 1007.2mb 42f
4:00 30 34 mph 1006.9mb 42f
3:00 29 34 mph 1008.1mb 42f
2:00 25 28 mph 1008.9mb 42f
1:00 24 28 mph 1009.6mb 42f
12:00 28 30 mph 1009.6mb 42f
Qua 05/04 11:00 24 29 mph 1010.8mb 42f
10:00 22 24 mph 1011.6mb 42f
9:00 20 21 mph 1012.2mb 42f
8:00 22 23 mph 1011.4mb 42f
7:00 22 24 mph 1011.3mb 42f
6:00 25 28 mph 1011.3mb 42f
5:00 29 32 mph 1011.4mb 42f
4:00 32 33 mph 1011.4mb 42f
3:00 28 30 mph 1012mb 41f
2:00 26 29 mph 1012.5mb 41f
1:00 24 26 mph 1012.9mb 41f
12:00 26 29 mph 1013.1mb 42f
11:00 24 25 mph 1012.8mb 42f
10:00 17 18 mph 1013mb 43f
9:00 18 20 mph 1012.8mb 43f
8:00 13 14 mph 1013.2mb 43f
7:00 11
mph
1012.1mb 44f
6:00 13 14 mph 1011.8mb 44f
5:00 9 10 mph 1011.6mb 44f
4:00 8
mph
1011.4mb 44f
3:00 8
mph
1011.2mb 45f
2:00 7
mph
1011.4mb 44f
1:00 6
mph
1011.1mb 45f
12:00 2
mph
1011.8mb 44f
Ter 05/03 11:00 2 3 mph 1011.6mb 46f
10:00 5
mph
1011.8mb 44f
9:00 2 3 mph 1011.7mb 44f
8:00 6
mph
1011.5mb 44f
7:00 6
mph
1010.6mb 44f
6:00 9
mph
1011.2mb 44f
5:00 7
mph
1011.1mb 44f
4:00 2 3 mph 1010.8mb 45f
3:00 2 3 mph 1011.3mb 45f
2:00 2 3 mph 1011.8mb 45f
1:00 2
mph
1011.9mb 45f
12:00 6 7 mph 1012.1mb 44f
11:00 7
mph
1012.6mb 42f
10:00 8
mph
1012.6mb 42f
9:00 10
mph
1012.9mb 42f
8:00 10 11 mph 1012.7mb 42f
7:00 14 15 mph 1012.4mb 42f
6:00 13 14 mph 1012.3mb 42f
5:00 16 17 mph 1010.9mb 42f
4:00 18 21 mph 1011.1mb 42f
3:00 18 21 mph 1011.2mb 42f
2:00 20 22 mph 1010.9mb 42f
1:00 21 23 mph 1010.9mb 42f
12:00 17 20 mph 1011.3mb 42f
Seg 05/02 11:00 16 18 mph 1011mb 42f
10:00 23 28 mph 1010.2mb 43f
9:00 23 24 mph 1010.5mb 42f
8:00 28 30 mph 1011.4mb 42f
7:00 15 17 mph 1012.3mb 44f
6:00 33 36 mph 1008.7mb 44f
5:00 26 29 mph 1011mb 43f
4:00 28 32 mph 1012.6mb 43f
3:00 24 28 mph 1014.3mb 42f
2:00 21 23 mph 1015.9mb 43f
1:00 18 21 mph 1016.2mb 44f
12:00 20 22 mph 1017.3mb 45f
11:00 20 21 mph 1018.1mb 45f
10:00 16 18 mph 1019mb 45f
9:00 14 15 mph 1019.5mb 44f
8:00 16 17 mph 1019.6mb 44f
7:00 15 16 mph 1019.6mb 44f
6:00 18 21 mph 1019.6mb 43f